createdAt,value
2022-11-15T00:01:48.452Z,9.13
2022-11-15T00:04:34.862Z,8.50
2022-11-15T00:07:48.125Z,8.37
2022-11-15T00:10:26.422Z,8.47
2022-11-15T00:13:13.550Z,8.10
2022-11-15T00:16:00.998Z,7.43
2022-11-15T00:18:50.666Z,8.33
2022-11-15T00:21:36.806Z,6.77
2022-11-15T00:24:22.880Z,7.63
2022-11-15T00:27:08.390Z,7.43
2022-11-15T00:29:54.221Z,7.90
2022-11-15T00:32:39.738Z,8.27
2022-11-15T00:35:25.508Z,7.77
2022-11-15T00:38:11.260Z,8.60
2022-11-15T00:40:57.164Z,8.23
2022-11-15T00:43:44.559Z,9.30
2022-11-15T00:46:30.747Z,10.63
2022-11-15T00:49:16.338Z,8.53
2022-11-15T00:52:01.927Z,9.53
2022-11-15T00:54:47.893Z,8.67
2022-11-15T00:57:33.650Z,8.73
2022-11-15T01:00:19.465Z,9.67
2022-11-15T01:03:04.798Z,9.60
2022-11-15T01:05:50.278Z,9.43
2022-11-15T01:08:36.458Z,9.30
2022-11-15T01:11:22.425Z,9.50
2022-11-15T01:14:08.356Z,9.07
2022-11-15T01:16:54.354Z,9.10
2022-11-15T01:19:39.619Z,9.23
2022-11-15T01:22:25.171Z,8.10
2022-11-15T01:25:11.025Z,7.83
2022-11-15T01:27:56.733Z,7.63
2022-11-15T01:30:42.822Z,7.97
2022-11-15T01:33:30.101Z,7.40
2022-11-15T01:36:19.578Z,7.97
2022-11-15T01:39:05.234Z,7.50
2022-11-15T01:41:50.764Z,7.70
2022-11-15T01:44:36.451Z,7.13
2022-11-15T01:47:26.235Z,8.23
2022-11-15T01:50:16.681Z,7.20
2022-11-15T01:53:02.603Z,7.23
2022-11-15T01:55:48.984Z,7.33
2022-11-15T01:58:36.426Z,7.27
2022-11-15T02:01:25.297Z,7.30
2022-11-15T02:04:18.045Z,7.23
2022-11-15T02:07:06.151Z,7.63
2022-11-15T02:09:52.500Z,7.10
2022-11-15T02:12:38.639Z,7.20
2022-11-15T02:15:31.651Z,6.87
2022-11-15T02:18:28.280Z,7.47
2022-11-15T02:21:29.687Z,7.97
2022-11-15T02:24:35.852Z,8.23
2022-11-15T02:27:33.005Z,7.57
2022-11-15T02:30:43.305Z,8.33
2022-11-15T02:33:58.455Z,9.07
2022-11-15T02:36:59.077Z,8.80
2022-11-15T02:40:10.825Z,9.53
2022-11-15T02:43:22.269Z,9.53
2022-11-15T02:46:50.489Z,9.83
2022-11-15T02:49:37.752Z,11.17
2022-11-15T02:52:27.045Z,10.33
2022-11-15T02:55:32.447Z,10.63
2022-11-15T02:58:42.041Z,10.47
2022-11-15T03:02:02.037Z,13.03
2022-11-15T03:08:15.287Z,13.10
2022-11-15T03:11:14.537Z,13.90
2022-11-15T03:14:01.770Z,14.57
2022-11-15T03:16:48.639Z,14.90
2022-11-15T03:19:47.960Z,14.03
2022-11-15T03:22:43.628Z,13.10
2022-11-15T03:25:31.802Z,13.83
2022-11-15T03:28:29.011Z,12.97
2022-11-15T03:31:34.807Z,14.83
2022-11-15T03:34:32.821Z,14.80
2022-11-15T03:37:22.328Z,14.13
2022-11-15T03:40:08.561Z,14.77
2022-11-15T03:43:21.158Z,15.30
2022-11-15T03:46:16.674Z,15.87
2022-11-15T03:49:10.289Z,14.27
2022-11-15T03:51:58.756Z,15.23
2022-11-15T03:54:58.042Z,15.37
2022-11-15T03:57:44.278Z,15.80
2022-11-15T04:00:29.890Z,14.23
2022-11-15T04:03:16.047Z,14.83
2022-11-15T04:06:02.060Z,14.03
2022-11-15T04:08:47.939Z,14.40
2022-11-15T04:11:33.516Z,12.67
2022-11-15T04:14:18.765Z,13.57
2022-11-15T04:17:04.644Z,12.83
2022-11-15T04:20:09.143Z,13.50
2022-11-15T04:23:17.383Z,13.40
2022-11-15T04:26:05.830Z,13.43
2022-11-15T04:29:09.906Z,13.93
2022-11-15T04:31:56.106Z,13.57
2022-11-15T04:34:41.508Z,13.67
2022-11-15T04:37:27.254Z,14.27
2022-11-15T04:40:13.507Z,13.97
2022-11-15T04:43:03.669Z,13.93
2022-11-15T04:45:49.509Z,14.70
2022-11-15T04:48:35.610Z,13.70
2022-11-15T04:51:21.786Z,15.00
2022-11-15T04:54:08.004Z,16.10
2022-11-15T04:56:53.846Z,15.53
2022-11-15T04:59:39.891Z,15.33
2022-11-15T05:02:45.664Z,14.70
2022-11-15T05:05:31.856Z,13.77
2022-11-15T05:08:17.652Z,14.70
2022-11-15T05:11:03.828Z,14.33
2022-11-15T05:13:49.787Z,14.37
2022-11-15T05:16:35.960Z,14.67
2022-11-15T05:19:21.863Z,14.17
2022-11-15T05:22:07.747Z,13.23
2022-11-15T05:24:53.057Z,13.30
2022-11-15T05:27:39.064Z,13.27
2022-11-15T05:30:24.835Z,12.13
2022-11-15T05:33:10.505Z,16.03
2022-11-15T05:36:01.267Z,12.63
2022-11-15T05:38:51.228Z,12.13
2022-11-15T05:41:47.578Z,10.87
2022-11-15T05:44:34.647Z,11.85
2022-11-15T05:47:26.884Z,13.13
2022-11-15T05:50:19.052Z,11.67
2022-11-15T05:53:05.549Z,11.50
2022-11-15T05:55:51.650Z,12.23
2022-11-15T05:58:38.315Z,10.80
2022-11-15T06:01:24.229Z,11.07
2022-11-15T06:04:10.031Z,10.77
2022-11-15T06:06:56.342Z,12.00
2022-11-15T06:09:41.987Z,11.63
2022-11-15T06:12:27.930Z,10.73
2022-11-15T06:15:13.238Z,10.90
2022-11-15T06:17:59.396Z,11.57
2022-11-15T06:20:45.240Z,11.17
2022-11-15T06:23:34.207Z,10.93
2022-11-15T06:26:20.199Z,11.07
2022-11-15T06:29:06.129Z,10.27
2022-11-15T06:31:52.152Z,10.53
2022-11-15T06:34:38.144Z,10.33
2022-11-15T06:37:24.149Z,10.83
2022-11-15T06:40:10.859Z,10.40
2022-11-15T06:43:00.329Z,11.53
2022-11-15T06:45:46.605Z,11.10
2022-11-15T06:48:33.995Z,11.67
2022-11-15T06:51:19.276Z,10.27
2022-11-15T06:54:04.789Z,12.23
2022-11-15T06:56:50.270Z,10.63
2022-11-15T06:59:40.318Z,12.07
2022-11-15T07:02:27.031Z,9.43
2022-11-15T07:05:13.193Z,9.87
2022-11-15T07:07:59.502Z,10.13
2022-11-15T07:10:45.555Z,9.30
2022-11-15T07:13:35.869Z,9.53
2022-11-15T07:16:22.139Z,9.43
2022-11-15T07:19:07.435Z,8.70
2022-11-15T07:21:52.813Z,9.37
2022-11-15T07:24:38.596Z,8.33
2022-11-15T07:27:24.165Z,9.87
2022-11-15T07:30:10.389Z,8.93
2022-11-15T07:32:56.310Z,8.30
2022-11-15T07:35:43.490Z,7.70
2022-11-15T07:38:30.043Z,8.20
2022-11-15T07:41:16.094Z,6.67
2022-11-15T07:44:01.417Z,7.20
2022-11-15T07:46:47.262Z,6.60
2022-11-15T07:49:33.080Z,6.20
2022-11-15T07:52:18.866Z,6.70
2022-11-15T07:55:04.677Z,6.80
2022-11-15T07:57:50.761Z,6.13
2022-11-15T08:00:37.222Z,6.37
2022-11-15T08:03:23.062Z,6.37
2022-11-15T08:06:08.885Z,6.03
2022-11-15T08:08:54.153Z,6.43
2022-11-15T08:11:39.966Z,5.83
2022-11-15T08:14:25.765Z,5.67
2022-11-15T08:17:11.485Z,5.10
2022-11-15T08:19:56.938Z,5.97
2022-11-15T08:22:42.489Z,5.57
2022-11-15T08:25:29.581Z,4.50
2022-11-15T08:28:17.680Z,5.07
2022-11-15T08:31:04.471Z,5.17
2022-11-15T08:33:50.342Z,5.23
2022-11-15T08:36:44.550Z,4.33
2022-11-15T08:39:32.322Z,4.83
2022-11-15T08:42:20.077Z,4.47
2022-11-15T08:45:06.707Z,4.67
2022-11-15T08:47:54.479Z,4.40
2022-11-15T08:50:40.809Z,4.93
2022-11-15T08:53:26.633Z,5.20
2022-11-15T08:56:13.853Z,5.37
2022-11-15T08:58:59.552Z,6.57
2022-11-15T09:01:45.089Z,6.20
2022-11-15T09:04:30.476Z,5.53
2022-11-15T09:07:16.191Z,4.57
2022-11-15T09:10:01.845Z,5.53
2022-11-15T09:12:49.477Z,5.77
2022-11-15T09:15:35.572Z,4.80
2022-11-15T09:18:23.270Z,3.77
2022-11-15T09:21:09.253Z,3.63
2022-11-15T09:23:54.767Z,3.77
2022-11-15T09:26:40.716Z,3.40
2022-11-15T09:29:26.584Z,3.00
2022-11-15T09:32:12.356Z,2.80
2022-11-15T09:34:58.175Z,4.03
2022-11-15T09:37:44.293Z,3.27
2022-11-15T09:40:32.126Z,2.73
2022-11-15T09:43:32.958Z,2.93
2022-11-15T09:46:47.800Z,2.50
2022-11-15T09:49:43.833Z,2.80
2022-11-15T09:52:24.371Z,2.37
2022-11-15T09:54:55.215Z,2.43
2022-11-15T09:57:39.604Z,2.63
2022-11-15T10:00:44.036Z,2.47
2022-11-15T10:03:16.124Z,2.10
2022-11-15T10:05:56.435Z,2.97
2022-11-15T10:08:51.586Z,2.57
2022-11-15T10:11:37.920Z,1.97
2022-11-15T10:14:17.200Z,2.47
2022-11-15T10:17:18.308Z,2.10
2022-11-15T10:19:51.431Z,2.17
2022-11-15T10:22:30.447Z,2.00
2022-11-15T10:25:02.086Z,1.63
2022-11-15T10:27:30.793Z,1.97
2022-11-15T10:29:57.731Z,2.10
2022-11-15T10:32:25.035Z,1.77
2022-11-15T10:34:52.515Z,2.20
2022-11-15T10:37:30.770Z,2.50
2022-11-15T10:40:15.351Z,2.03
2022-11-15T10:42:42.722Z,1.90
2022-11-15T10:45:30.097Z,1.93
2022-11-15T10:48:24.217Z,1.97
2022-11-15T10:50:53.012Z,1.80
2022-11-15T10:53:31.592Z,1.63
2022-11-15T10:56:03.027Z,1.40
2022-11-15T10:58:40.930Z,4.03
2022-11-15T11:01:20.933Z,1.63
2022-11-15T11:04:01.356Z,1.80
2022-11-15T11:06:28.865Z,1.70
2022-11-15T11:09:02.220Z,1.80
2022-11-15T11:11:50.800Z,1.60
2022-11-15T11:14:32.006Z,1.67
2022-11-15T11:17:34.152Z,1.33
2022-11-15T11:20:30.361Z,1.40
2022-11-15T11:22:57.709Z,1.50
2022-11-15T11:25:35.931Z,1.10
2022-11-15T11:28:05.598Z,1.30
2022-11-15T11:30:43.550Z,1.40
2022-11-15T11:33:34.527Z,1.40
2022-11-15T11:36:34.473Z,1.37
2022-11-15T11:39:46.085Z,1.80
2022-11-15T11:42:49.878Z,2.10
2022-11-15T11:45:33.832Z,1.50
2022-11-15T11:48:25.233Z,1.73
2022-11-15T11:50:54.632Z,1.80
2022-11-15T11:53:40.050Z,1.50
2022-11-15T11:56:36.060Z,1.70
2022-11-15T11:59:26.607Z,1.57
2022-11-15T12:01:54.002Z,1.70
2022-11-15T12:04:36.138Z,1.60
2022-11-15T12:07:03.610Z,1.80
2022-11-15T12:09:36.675Z,1.87
2022-11-15T12:12:26.198Z,1.70
2022-11-15T12:15:00.569Z,1.57
2022-11-15T12:17:33.255Z,1.60
2022-11-15T12:20:16.376Z,1.60
2022-11-15T12:22:56.050Z,1.90
2022-11-15T12:25:32.047Z,1.80
2022-11-15T12:28:16.053Z,1.90
2022-11-15T12:30:56.639Z,1.73
2022-11-15T12:33:47.863Z,2.33
2022-11-15T12:36:23.607Z,1.60
2022-11-15T12:39:01.881Z,1.90
2022-11-15T12:41:31.466Z,1.87
2022-11-15T12:44:02.295Z,1.93
2022-11-15T12:46:32.003Z,2.10
2022-11-15T12:49:23.836Z,2.03
2022-11-15T12:51:52.065Z,1.60
2022-11-15T12:54:24.955Z,2.10
2022-11-15T12:57:04.168Z,2.33
2022-11-15T12:59:56.365Z,2.10
2022-11-15T13:02:46.436Z,2.43
2022-11-15T13:05:23.486Z,2.53
2022-11-15T13:07:50.688Z,2.37
2022-11-15T13:10:17.991Z,2.40
2022-11-15T13:12:47.716Z,2.70
2022-11-15T13:15:53.837Z,2.63
2022-11-15T13:18:30.146Z,2.60
2022-11-15T13:21:02.155Z,2.73
2022-11-15T13:23:30.527Z,2.93
2022-11-15T13:26:11.472Z,2.80
2022-11-15T13:28:50.514Z,2.53
2022-11-15T13:31:38.732Z,2.23
2022-11-15T13:34:50.133Z,2.40
2022-11-15T13:37:35.387Z,2.53
2022-11-15T13:40:37.959Z,2.20
2022-11-15T13:43:37.344Z,2.77
2022-11-15T13:46:13.204Z,2.87
2022-11-15T13:48:42.093Z,2.97
2022-11-15T13:51:23.710Z,2.50
2022-11-15T13:53:57.857Z,2.50
2022-11-15T13:56:27.010Z,2.53
2022-11-15T13:58:55.802Z,2.83
2022-11-15T14:01:23.868Z,2.67
2022-11-15T14:03:55.468Z,2.30
2022-11-15T14:06:25.560Z,2.47
2022-11-15T14:09:11.009Z,2.50
2022-11-15T14:11:38.904Z,2.10
2022-11-15T14:14:06.268Z,2.63
2022-11-15T14:16:57.759Z,2.07
2022-11-15T14:19:24.680Z,2.70
2022-11-15T14:22:10.646Z,2.17
2022-11-15T14:24:38.553Z,2.20
2022-11-15T14:27:27.932Z,2.17
2022-11-15T14:29:55.787Z,2.57
2022-11-15T14:32:25.272Z,2.43
2022-11-15T14:35:01.528Z,2.73
2022-11-15T14:37:36.779Z,2.80
2022-11-15T14:40:06.319Z,2.70
2022-11-15T14:42:33.812Z,2.33
2022-11-15T14:45:01.192Z,2.07
2022-11-15T14:47:28.629Z,2.43
2022-11-15T14:49:56.194Z,2.80
2022-11-15T14:52:34.416Z,2.27
2022-11-15T14:55:03.424Z,2.30
2022-11-15T14:57:31.738Z,2.47
2022-11-15T14:59:59.210Z,2.17
2022-11-15T15:02:39.930Z,2.33
2022-11-15T15:05:18.183Z,2.47
2022-11-15T15:07:45.822Z,2.47
2022-11-15T15:13:01.710Z,2.23
2022-11-15T15:15:37.673Z,2.57
2022-11-15T15:18:05.878Z,2.67
2022-11-15T15:20:33.597Z,2.43
2022-11-15T15:23:00.970Z,2.87
2022-11-15T15:25:37.012Z,2.57
2022-11-15T15:28:04.582Z,2.43
2022-11-15T15:30:32.196Z,2.23
2022-11-15T15:32:59.694Z,2.20
2022-11-15T15:35:31.877Z,2.37
2022-11-15T15:38:00.137Z,2.20
2022-11-15T15:40:29.893Z,2.80
2022-11-15T15:42:56.913Z,2.70
2022-11-15T15:45:24.307Z,2.63
2022-11-15T15:47:52.976Z,2.77
2022-11-15T15:50:32.899Z,3.57
2022-11-15T15:53:01.974Z,2.93
2022-11-15T15:55:29.597Z,2.63
2022-11-15T15:57:57.202Z,3.00
2022-11-15T16:00:26.283Z,3.63
2022-11-15T16:02:54.523Z,3.53
2022-11-15T16:05:22.414Z,3.43
2022-11-15T16:07:50.150Z,3.00
2022-11-15T16:10:17.515Z,3.30
2022-11-15T16:12:45.140Z,3.43
2022-11-15T16:15:12.642Z,3.13
2022-11-15T16:17:44.805Z,2.83
2022-11-15T16:20:43.536Z,2.53
2022-11-15T16:23:13.339Z,3.07
2022-11-15T16:25:56.419Z,2.57
2022-11-15T16:28:23.505Z,3.30
2022-11-15T16:31:00.551Z,3.53
2022-11-15T16:33:27.983Z,3.37
2022-11-15T16:35:55.417Z,2.80
2022-11-15T16:38:22.964Z,3.17
2022-11-15T16:40:50.537Z,2.83
2022-11-15T16:43:30.021Z,2.33
2022-11-15T16:45:57.604Z,2.80
2022-11-15T16:48:26.744Z,2.97
2022-11-15T16:50:58.275Z,3.40
2022-11-15T16:53:26.419Z,3.17
2022-11-15T16:55:55.093Z,3.30
2022-11-15T16:58:22.445Z,2.80
2022-11-15T17:00:53.844Z,3.20
2022-11-15T17:03:22.339Z,3.00
2022-11-15T17:05:50.314Z,3.60
2022-11-15T17:08:17.707Z,3.10
2022-11-15T17:10:44.770Z,3.23
2022-11-15T17:13:14.958Z,2.60
2022-11-15T17:15:42.630Z,2.80
2022-11-15T17:18:16.693Z,4.03
2022-11-15T17:20:44.380Z,2.77
2022-11-15T17:23:15.171Z,2.57
2022-11-15T17:25:42.902Z,2.60
2022-11-15T17:28:10.715Z,3.07
2022-11-15T17:30:38.088Z,2.20
2022-11-15T17:33:05.294Z,2.30
2022-11-15T17:35:32.675Z,2.70
2022-11-15T17:38:00.096Z,2.53
2022-11-15T17:40:27.460Z,2.73
2022-11-15T17:42:55.428Z,2.63
2022-11-15T17:45:22.824Z,2.60
2022-11-15T17:47:50.197Z,3.20
2022-11-15T17:50:17.959Z,2.90
2022-11-15T17:52:45.335Z,3.20
2022-11-15T17:55:12.778Z,3.23
2022-11-15T17:57:40.198Z,3.37
2022-11-15T18:00:07.949Z,2.93
2022-11-15T18:02:35.487Z,3.90
2022-11-15T18:05:03.309Z,3.33
2022-11-15T18:07:30.867Z,3.43
2022-11-15T18:09:58.341Z,3.77
2022-11-15T18:12:25.813Z,4.10
2022-11-15T18:14:53.236Z,4.63
2022-11-15T18:17:21.226Z,3.73
2022-11-15T18:19:48.745Z,3.23
2022-11-15T18:22:16.144Z,4.30
2022-11-15T18:24:43.968Z,4.17
2022-11-15T18:27:11.705Z,3.90
2022-11-15T18:29:39.538Z,4.97
2022-11-15T18:32:12.362Z,4.93
2022-11-15T18:34:39.638Z,3.67
2022-11-15T18:37:07.269Z,4.23
2022-11-15T18:39:34.780Z,4.33
2022-11-15T18:42:01.953Z,4.77
2022-11-15T18:44:30.268Z,4.03
2022-11-15T18:46:57.813Z,3.80
2022-11-15T18:49:25.448Z,4.30
2022-11-15T18:51:53.302Z,4.00
2022-11-15T18:54:20.758Z,4.93
2022-11-15T18:56:48.225Z,3.97
2022-11-15T18:59:16.232Z,4.47
2022-11-15T19:01:48.165Z,5.17
2022-11-15T19:04:18.505Z,3.60
2022-11-15T19:06:47.907Z,4.37
2022-11-15T19:09:17.705Z,3.97
2022-11-15T19:11:46.397Z,3.87
2022-11-15T19:14:15.902Z,3.33
2022-11-15T19:16:52.114Z,3.87
2022-11-15T19:19:22.537Z,3.17
2022-11-15T19:21:50.083Z,3.50
2022-11-15T19:24:17.246Z,3.50
2022-11-15T19:26:45.157Z,3.07
2022-11-15T19:29:13.879Z,3.10
2022-11-15T19:31:42.326Z,3.87
2022-11-15T19:34:13.784Z,4.00
2022-11-15T19:36:42.956Z,3.60
2022-11-15T19:39:13.397Z,4.13
2022-11-15T19:41:42.546Z,3.70
2022-11-15T19:44:11.693Z,3.47
2022-11-15T19:46:40.951Z,3.87
2022-11-15T19:49:11.474Z,3.67
2022-11-15T19:51:42.668Z,3.47
2022-11-15T19:54:10.790Z,3.43
2022-11-15T19:56:39.983Z,4.07
2022-11-15T19:59:07.518Z,3.27
2022-11-15T20:01:37.884Z,3.37
2022-11-15T20:04:06.150Z,3.27
2022-11-15T20:06:40.096Z,4.83
2022-11-15T20:09:08.712Z,2.97
2022-11-15T20:11:37.918Z,3.27
2022-11-15T20:14:07.874Z,2.60
2022-11-15T20:16:35.321Z,2.70
2022-11-15T20:19:02.803Z,3.30
2022-11-15T20:21:30.321Z,2.73
2022-11-15T20:23:58.754Z,3.03
2022-11-15T20:26:26.232Z,2.87
2022-11-15T20:28:53.886Z,2.70
2022-11-15T20:31:21.935Z,2.43
2022-11-15T20:33:49.383Z,2.53
2022-11-15T20:36:16.917Z,2.40
2022-11-15T20:38:49.516Z,2.43
2022-11-15T20:41:16.919Z,2.43
2022-11-15T20:43:44.141Z,2.50
2022-11-15T20:46:12.666Z,2.60
2022-11-15T20:48:40.714Z,2.73
2022-11-15T20:51:12.779Z,2.63
2022-11-15T20:53:44.496Z,2.60
2022-11-15T20:56:15.720Z,3.07
2022-11-15T20:58:43.643Z,2.70
2022-11-15T21:01:13.798Z,2.60
2022-11-15T21:03:41.544Z,2.43
2022-11-15T21:06:09.258Z,2.93
2022-11-15T21:08:58.069Z,3.10
2022-11-15T21:11:44.758Z,2.93
2022-11-15T21:14:12.332Z,2.43
2022-11-15T21:16:40.005Z,2.67
2022-11-15T21:19:07.348Z,2.87
2022-11-15T21:21:36.311Z,2.60
2022-11-15T21:24:05.222Z,3.13
2022-11-15T21:26:33.812Z,3.03
2022-11-15T21:29:01.587Z,2.60
2022-11-15T21:31:29.842Z,3.10
2022-11-15T21:33:57.106Z,2.23
2022-11-15T21:36:25.173Z,2.90
2022-11-15T21:38:53.828Z,3.43
2022-11-15T21:41:21.312Z,4.97
2022-11-15T21:43:49.150Z,8.60
2022-11-15T21:46:16.888Z,3.37
2022-11-15T21:48:44.115Z,2.30
2022-11-15T21:51:12.360Z,2.70
2022-11-15T21:53:39.505Z,2.70
2022-11-15T21:56:07.100Z,2.63
2022-11-15T21:58:34.919Z,2.60
2022-11-15T22:01:21.558Z,2.43
2022-11-15T22:03:49.155Z,2.50
2022-11-15T22:06:18.168Z,2.50
2022-11-15T22:08:46.610Z,2.80
2022-11-15T22:11:14.601Z,2.93
2022-11-15T22:13:41.991Z,2.43
2022-11-15T22:16:10.029Z,2.17
2022-11-15T22:18:37.825Z,2.80
2022-11-15T22:21:09.157Z,2.97
2022-11-15T22:23:37.255Z,2.50
2022-11-15T22:26:05.560Z,3.20
2022-11-15T22:28:33.388Z,2.83
2022-11-15T22:31:00.664Z,2.40
2022-11-15T22:33:30.702Z,2.73
2022-11-15T22:35:58.741Z,2.90
2022-11-15T22:38:26.766Z,3.73
2022-11-15T22:41:23.358Z,2.73
2022-11-15T22:43:51.943Z,2.50
2022-11-15T22:46:22.537Z,3.07
2022-11-15T22:48:49.823Z,2.60
2022-11-15T22:51:17.284Z,2.70
2022-11-15T22:53:44.798Z,2.50
2022-11-15T22:56:14.114Z,2.33
2022-11-15T22:58:44.671Z,2.70
2022-11-15T23:01:20.377Z,3.10
2022-11-15T23:03:47.562Z,2.77
2022-11-15T23:06:14.630Z,2.77
2022-11-15T23:08:42.264Z,2.67
2022-11-15T23:11:29.881Z,3.10
2022-11-15T23:13:57.449Z,2.93
2022-11-15T23:16:34.519Z,2.40
2022-11-15T23:19:05.135Z,2.60
2022-11-15T23:21:58.077Z,2.90
2022-11-15T23:24:25.715Z,2.83
2022-11-15T23:26:56.662Z,3.07
2022-11-15T23:29:32.392Z,2.80
2022-11-15T23:32:19.148Z,2.60
2022-11-15T23:34:46.707Z,2.27
2022-11-15T23:37:15.405Z,6.73
2022-11-15T23:39:43.079Z,4.63
2022-11-15T23:42:19.756Z,3.90
2022-11-15T23:44:49.958Z,2.67
2022-11-15T23:47:18.618Z,3.97
2022-11-15T23:49:46.121Z,3.10
2022-11-15T23:52:15.394Z,3.30
2022-11-15T23:54:43.279Z,2.83
2022-11-15T23:57:12.390Z,3.33
2022-11-15T23:59:43.785Z,2.70
